Bucksport, South Carolina
Current Conditions -  °F | °C
As of 9:55 AM on Thursday 30 Oct 2014 (Local Time) from KHYW Reporting Station
Haze Haze  
Wind Chill: 59°   Ceiling: 1200
Heat Index: 59°   Visibility: 5mi
Dew Point: 59°   Wind: 6mph
Humidity: 100%   Direction: 10°N
Pressure: 30.02"   Gusts: NA
Location:  33.736°N, 79.1183°W
Report Text: KHYW 301355Z AUTO 01005KT 5SM BR OVC012 15/15 A3002 RMK AO2 LTG DSNT SE
Loading
Personal Weather Stations






























Interactive Weather Map
Tropical Storm Tracking
New forecast layout! Learn more

10-Day Weather Forecast

Advertisements
Track Severe Weather on mobile